Latest Weather Observations for Cape Wessel

IDD60801

Issued at 11:31 pm CST Saturday 16 February 2019 (issued every 10 minutes, with the page automatically refreshed every 10 minutes)

About weather observations | Map of weather stations | Latest weather observations for NT | Other Formats
Station Details ID: 200786 Name: CAPE WESSEL Lat: -11.00 Lon: 136.76 Height: 18.0 m
Data from the previous 72 hours. | See also: Recent months at Cape Wessel
Date/Time
CST
Temp
°C
App
Temp
°C
Dew
Point
°C
Rel
Hum
%
Delta-T
°C
Wind Press
QNH
hPa
Press
MSL
hPa
Rain since
9am
mm
Dir  Spd
km/h
Gust
km/h
Spd
kts
Gust
kts
16/11:30pm 26.9 31.0 23.2 80 2.5 ENE 7 9 4 5 1011.9 1011.8 0.0
16/11:00pm 26.8 30.8 23.1 80 2.5 NE 7 9 4 5 1011.9 1011.8 0.0
16/10:30pm 27.0 30.9 23.0 79 2.7 ESE 7 9 4 5 1011.8 1011.7 0.0
16/10:00pm 27.3 31.4 23.3 79 2.7 E 7 11 4 6 1011.4 1011.3 0.0
16/09:30pm 27.1 30.8 23.3 80 2.6 E 9 13 5 7 1011.0 1010.9 0.0
16/09:00pm 27.0 30.7 23.3 80 2.5 ESE 9 11 5 6 1010.8 1010.7 0.0
16/08:30pm 27.2 32.5 23.0 78 2.9 CALM 0 0 0 0 1010.7 1010.6 0.0
16/08:00pm 27.6 32.9 23.0 76 3.1 CALM 0 0 0 0 1010.5 1010.4 0.0
16/07:30pm 28.2 32.5 23.3 75 3.4 NNW 6 7 3 4 1010.4 1010.3 0.0
16/07:00pm 28.6 32.7 23.3 73 3.6 N 7 7 4 4 1010.0 1009.9 0.0
16/06:30pm 29.6 33.7 23.3 69 4.3 N 7 9 4 5 1009.6 1009.5 0.0
16/06:00pm 30.6 35.0 23.8 67 4.7 NNE 7 9 4 5 1009.4 1009.3 0.0
16/05:30pm 31.4 36.0 23.8 64 5.3 ENE 6 9 3 5 1009.2 1009.1 0.0
16/05:00pm 31.1 35.1 23.7 64 5.1 N 9 11 5 6 1008.9 1008.8 0.0
16/04:30pm 32.1 36.0 24.2 63 5.5 NNW 11 13 6 7 1009.2 1009.1 0.0
16/04:00pm 32.9 37.4 24.6 61 5.8 NNW 9 13 5 7 1009.5 1009.4 0.0
16/03:30pm 32.1 36.4 24.2 63 5.5 N 9 13 5 7 1009.5 1009.4 0.0
16/03:00pm 32.6 37.0 24.4 62 5.8 N 9 13 5 7 1009.9 1009.8 0.0
16/02:30pm 32.6 36.2 23.8 59 6.1 N 11 13 6 7 1010.3 1010.2 0.0
16/02:00pm 33.4 37.9 24.6 60 6.2 N 9 13 5 7 1010.8 1010.7 0.0
16/01:30pm 34.1 38.0 24.9 58 6.5 WNW 13 15 7 8 1011.4 1011.3 0.0
16/01:00pm 34.0 37.9 24.8 58 6.5 NW 13 17 7 9 1011.7 1011.6 0.0
16/12:30pm 34.0 37.7 25.1 59 6.3 WNW 15 20 8 11 1012.1 1012.0 0.0
16/12:00pm 33.5 36.7 24.4 59 6.4 WNW 15 20 8 11 1012.4 1012.3 0.0
16/11:30am 33.4 36.9 24.8 60 6.1 WNW 15 19 8 10 1012.5 1012.4 0.0
16/11:00am 33.0 36.7 24.5 61 6.0 WNW 13 19 7 10 1012.7 1012.6 0.0
16/10:30am 32.5 36.2 24.5 62 5.6 WNW 13 17 7 9 1012.8 1012.7 0.0
16/10:00am 32.1 36.3 25.4 67 4.8 W 13 19 7 10 1013.1 1013.0 0.0
16/09:30am 32.0 36.4 25.6 69 4.5 WSW 13 20 7 11 1013.1 1013.0 0.0
16/09:00am 31.4 36.0 26.0 73 3.9 WSW 13 19 7 10 1012.9 1012.8 -
16/08:30am 29.9 33.5 25.0 75 3.4 W 15 20 8 11 1012.5 1012.4 -
16/08:00am 30.0 34.2 25.3 76 3.3 W 13 15 7 8 1012.1 1012.0 -
16/07:30am 28.8 33.2 25.0 80 2.7 W 11 13 6 7 1012.1 1012.0 -
16/07:00am 27.8 32.8 25.4 87 1.7 W 9 11 5 6 1012.0 1011.9 -
16/06:30am 27.1 31.7 24.7 87 1.7 WNW 9 13 5 7 1011.8 1011.7 -
16/06:00am 26.9 30.9 24.4 86 1.7 NW 11 13 6 7 1011.7 1011.6 -
16/05:30am 27.1 31.2 24.6 86 1.7 WNW 11 13 6 7 1011.7 1011.6 -
16/05:00am 27.1 30.8 24.6 86 1.7 NW 13 15 7 8 1011.3 1011.2 -
16/04:30am 27.4 31.6 24.8 86 1.8 WNW 11 15 6 8 1011.2 1011.1 -
16/04:00am 27.4 31.3 24.8 86 1.8 WNW 13 15 7 8 1011.1 1011.0 -
16/03:30am 27.3 31.4 24.6 85 1.9 NW 11 13 6 7 1011.2 1011.1 -
16/03:00am 27.5 31.8 24.9 86 1.8 NW 11 15 6 8 1011.2 1011.1 -
16/02:30am 27.6 31.5 24.8 85 2.0 NW 13 15 7 8 1011.4 1011.3 -
16/02:00am 27.7 31.5 24.7 84 2.1 NW 13 15 7 8 1011.7 1011.6 -
16/01:30am 27.9 31.8 24.9 84 2.1 WNW 13 17 7 9 1012.2 1012.1 -
16/01:00am 27.9 31.8 24.9 84 2.1 NW 13 15 7 8 1012.4 1012.3 -
16/12:30am 28.2 31.4 24.4 80 2.6 WNW 15 17 8 9 1012.6 1012.5 -
16/12:00am 28.6 32.0 25.2 82 2.4 WNW 17 20 9 11 1013.0 1012.9 -
 
Date/Time
CST
Temp
°C
App
Temp
°C
Dew
Point
°C
Rel
Hum
%
Delta-T
°C
Wind Press
QNH
hPa
Press
MSL
hPa
Rain since
9am
mm
Dir  Spd
km/h
Gust
km/h
Spd
kts
Gust
kts
15/11:30pm 28.6 - 25.0 81 2.5 - - - - - 1013.3 1013.2 -
15/04:30am 28.2 30.5 25.6 86 1.8 WNW 24 28 13 15 1010.2 1010.1 0.0
15/04:00am 28.2 30.9 25.6 86 1.8 WNW 22 28 12 15 1009.9 1009.8 0.0
15/03:30am 28.3 31.2 25.9 87 1.7 WNW 22 28 12 15 1009.9 1009.8 0.0
15/03:00am 28.2 31.4 25.8 87 1.7 WNW 20 26 11 14 1010.2 1010.1 0.0
15/02:30am 28.2 31.0 25.8 87 1.7 WNW 22 30 12 16 1010.5 1010.4 0.0
15/02:00am 28.0 31.0 25.6 87 1.7 WNW 20 24 11 13 1010.9 1010.8 0.0
15/01:30am 28.0 30.8 25.8 88 1.6 NW 22 26 12 14 1011.0 1010.9 0.0
15/01:00am 28.0 31.0 25.6 87 1.7 NW 20 26 11 14 1011.2 1011.1 0.0
15/12:30am 28.1 31.4 25.7 87 1.7 NNW 19 24 10 13 1011.4 1011.3 0.0
15/12:00am 28.0 31.6 25.6 87 1.7 NNW 17 22 9 12 1011.7 1011.6 0.0
 
Date/Time
CST
Temp
°C
App
Temp
°C
Dew
Point
°C
Rel
Hum
%
Delta-T
°C
Wind Press
QNH
hPa
Press
MSL
hPa
Rain since
9am
mm
Dir  Spd
km/h
Gust
km/h
Spd
kts
Gust
kts
14/11:30pm 28.1 31.8 25.7 87 1.7 NW 17 20 9 11 1011.7 1011.6 0.0
14/11:00pm 28.3 31.6 25.7 86 1.8 NW 19 22 10 12 1011.8 1011.7 0.0
14/10:30pm 28.4 31.6 25.8 86 1.8 WNW 20 24 11 13 1011.7 1011.6 0.0
14/10:00pm 28.6 31.9 26.0 86 1.8 WNW 20 26 11 14 1011.2 1011.1 0.0
14/09:30pm 28.8 31.7 26.0 85 2.0 W 22 26 12 14 1011.1 1011.0 0.0
14/09:00pm 28.8 31.2 25.8 84 2.1 W 24 28 13 15 1010.7 1010.6 0.0
14/08:30pm 28.9 31.4 25.9 84 2.1 W 24 28 13 15 1010.2 1010.1 0.0
14/08:00pm 28.9 31.4 25.9 84 2.1 W 24 30 13 16 1009.8 1009.7 0.0
14/07:30pm 28.9 31.2 25.7 83 2.3 WNW 24 28 13 15 1009.2 1009.1 0.0
14/07:00pm 29.2 31.7 26.0 83 2.3 W 24 28 13 15 1008.7 1008.6 0.0
14/06:30pm 29.5 32.0 25.9 81 2.6 W 24 30 13 16 1008.5 1008.4 0.0
14/06:00pm 30.1 32.3 26.1 79 2.9 W 26 32 14 17 1008.4 1008.3 0.0
14/05:30pm 31.1 33.6 25.9 74 3.7 WNW 24 30 13 16 1008.4 1008.3 0.0
14/05:00pm 31.8 33.5 25.9 71 4.2 WNW 28 32 15 17 1008.4 1008.3 0.0
14/04:30pm 32.1 34.1 26.4 72 4.1 WNW 28 33 15 18 1008.4 1008.3 0.0
14/04:00pm 32.4 34.8 26.9 73 4.0 WNW 28 33 15 18 1008.5 1008.4 0.0
14/03:30pm 32.8 34.9 25.9 67 4.9 W 26 32 14 17 1008.7 1008.6 0.0
14/03:00pm 33.6 36.2 26.6 67 5.1 W 26 32 14 17 1008.9 1008.8 0.0
14/02:30pm 33.1 34.9 26.1 66 5.0 WNW 28 33 15 18 1008.9 1008.8 0.0
14/02:00pm 33.3 35.1 26.1 66 5.2 W 28 33 15 18 1009.1 1009.0 0.0
14/01:30pm 33.3 34.9 25.8 65 5.4 W 28 33 15 18 1009.6 1009.5 0.0
14/01:00pm 33.3 35.3 25.8 65 5.4 W 26 33 14 18 1010.1 1010.0 0.0
14/12:30pm 33.7 35.8 26.5 66 5.2 W 28 33 15 18 1010.5 1010.4 0.0
14/12:00pm 33.3 35.9 26.6 68 4.8 W 26 33 14 18 1010.7 1010.6 0.0
14/11:30am 32.9 34.4 26.7 70 4.5 W 32 37 17 20 1010.9 1010.8 0.0
14/11:00am 32.2 33.4 26.3 71 4.2 WNW 32 37 17 20 1011.2 1011.1 0.0
14/10:30am 31.6 33.5 26.2 73 3.9 W 28 32 15 17 1011.5 1011.4 0.0
14/10:00am 32.1 34.1 26.4 72 4.1 W 28 33 15 18 1011.6 1011.5 0.0
14/09:30am 31.4 33.3 26.7 76 3.4 WNW 30 35 16 19 1011.6 1011.5 0.0
14/09:00am 30.8 32.6 26.1 76 3.4 WNW 28 33 15 18 1011.4 1011.3 0.0
14/08:30am 30.6 31.7 26.1 77 3.2 WNW 32 35 17 19 1011.2 1011.1 0.0
14/08:00am 30.2 32.2 26.4 80 2.7 WNW 28 33 15 18 1011.3 1011.2 0.0
14/07:30am 29.5 31.9 26.3 83 2.3 WNW 26 32 14 17 1011.1 1011.0 0.0
14/07:00am 28.9 30.7 26.1 85 2.0 WNW 28 33 15 18 1010.6 1010.5 0.0
14/06:30am 28.6 29.5 25.8 85 2.0 WNW 32 37 17 20 1010.4 1010.3 0.0
14/06:00am 28.7 29.7 25.9 85 2.0 WNW 32 37 17 20 1010.0 1009.9 0.0
14/05:30am 28.6 29.5 25.8 85 2.0 WNW 32 41 17 22 1009.7 1009.6 0.0
14/05:00am 28.7 29.5 25.9 85 2.0 WNW 33 39 18 21 1009.7 1009.6 0.0
14/04:30am 28.7 29.5 25.7 84 2.1 WNW 32 35 17 19 1009.6 1009.5 0.0
14/04:00am 28.7 29.5 25.9 85 2.0 WNW 33 39 18 21 1009.2 1009.1 0.0
14/03:30am 28.7 28.7 25.9 85 2.0 WNW 37 44 20 24 1008.9 1008.8 0.0
14/03:00am 28.8 28.9 26.0 85 2.0 WNW 37 43 20 23 1009.1 1009.0 0.0
14/02:30am 28.6 28.8 25.6 84 2.1 WNW 35 41 19 22 1009.2 1009.1 0.0
14/02:00am 28.7 29.1 25.9 85 2.0 WNW 35 43 19 23 1009.4 1009.3 0.0
14/01:30am 28.7 29.2 26.1 86 1.8 WNW 35 44 19 24 1009.3 1009.2 0.0
14/01:00am 28.6 28.9 25.8 85 2.0 NW 35 43 19 23 1009.9 1009.8 0.0
14/12:30am 28.4 29.3 25.8 86 1.8 NW 32 39 17 21 1009.9 1009.8 0.0
14/12:00am 28.5 29.7 25.7 85 2.0 WNW 30 37 16 20 1010.2 1010.1 0.0

Other Formats:

Comma delimited format used in spreadsheet applications
http://www.bom.gov.au/fwo/IDD60801/IDD60801.94147.axf

JavaScript Object Notation format (JSON) in row-major order
http://www.bom.gov.au/fwo/IDD60801/IDD60801.94147.json